createdAt,value
2022-12-07T00:05:06.409Z,3.7
2022-12-07T00:09:10.474Z,3.8
2022-12-07T00:11:12.510Z,3.8
2022-12-07T00:13:14.568Z,3.7
2022-12-07T00:15:16.583Z,3.8
2022-12-07T00:17:21.763Z,3.8
2022-12-07T00:19:23.822Z,3.8
2022-12-07T00:21:25.871Z,3.8
2022-12-07T00:23:27.903Z,3.7
2022-12-07T00:25:29.933Z,3.7
2022-12-07T00:27:31.968Z,3.6
2022-12-07T00:29:34.002Z,3.5
2022-12-07T00:31:39.306Z,3.5
2022-12-07T00:33:41.233Z,3.5
2022-12-07T00:35:43.273Z,3.5
2022-12-07T00:37:45.288Z,3.5
2022-12-07T00:39:47.372Z,3.5
2022-12-07T00:41:49.410Z,3.4
2022-12-07T00:43:51.438Z,3.3
2022-12-07T00:45:56.669Z,3.3
2022-12-07T00:47:58.695Z,3.4
2022-12-07T00:50:01.045Z,3.3
2022-12-07T00:52:23.797Z,3.3
2022-12-07T00:54:25.824Z,3.3
2022-12-07T00:56:27.849Z,3.4
2022-12-07T00:58:33.054Z,3.4
2022-12-07T01:00:35.076Z,3.4
2022-12-07T01:12:50.420Z,3.6
2022-12-07T01:14:52.447Z,3.6
2022-12-07T01:16:56.039Z,3.5
2022-12-07T01:18:57.972Z,3.6
2022-12-07T01:21:00.002Z,3.6
2022-12-07T01:23:02.030Z,3.6
2022-12-07T01:25:04.126Z,3.6
2022-12-07T01:27:09.238Z,3.5
2022-12-07T01:29:11.254Z,3.6
2022-12-07T01:31:13.318Z,3.6
2022-12-07T01:33:15.322Z,3.6
2022-12-07T01:35:17.343Z,3.6
2022-12-07T01:37:19.378Z,3.6
2022-12-07T01:39:21.390Z,3.7
2022-12-07T01:41:26.583Z,3.7
2022-12-07T01:43:28.617Z,3.7
2022-12-07T01:45:30.657Z,3.6
2022-12-07T01:46:33.311Z,3.6
2022-12-07T01:48:35.263Z,3.5
2022-12-07T01:50:37.299Z,3.6
2022-12-07T01:52:39.321Z,3.5
2022-12-07T01:54:44.524Z,3.5
2022-12-07T01:56:46.581Z,3.5
2022-12-07T01:58:48.620Z,3.6
2022-12-07T02:00:50.615Z,3.6
2022-12-07T02:02:52.772Z,3.6
2022-12-07T02:04:54.708Z,3.6
2022-12-07T02:06:56.741Z,3.6
2022-12-07T02:09:01.910Z,3.6
2022-12-07T02:11:03.923Z,3.7
2022-12-07T02:13:06.013Z,3.7
2022-12-07T02:15:08.016Z,3.8
2022-12-07T02:17:10.076Z,3.7
2022-12-07T02:19:12.099Z,3.7
2022-12-07T02:21:14.100Z,3.8
2022-12-07T02:23:19.314Z,3.8
2022-12-07T02:25:21.459Z,3.8
2022-12-07T02:27:23.366Z,3.7
2022-12-07T02:29:25.374Z,3.7
2022-12-07T02:31:27.450Z,3.6
2022-12-07T02:33:29.454Z,3.6
2022-12-07T02:35:31.495Z,3.5
2022-12-07T02:37:36.692Z,3.5
2022-12-07T02:41:40.752Z,3.4
2022-12-07T02:44:45.374Z,3.4
2022-12-07T02:46:47.484Z,3.5
2022-12-07T02:48:49.470Z,3.5
2022-12-07T02:50:54.644Z,3.6
2022-12-07T02:52:56.717Z,3.5
2022-12-07T02:57:00.760Z,3.5
2022-12-07T02:59:02.800Z,3.5
2022-12-07T03:01:04.850Z,3.6
2022-12-07T03:03:07.031Z,3.6
2022-12-07T03:05:12.083Z,3.7
2022-12-07T03:07:14.091Z,3.7
2022-12-07T03:09:16.133Z,3.6
2022-12-07T03:11:21.955Z,3.7
2022-12-07T03:13:20.199Z,3.7
2022-12-07T03:15:22.238Z,3.8
2022-12-07T03:17:24.302Z,3.7
2022-12-07T03:21:31.514Z,3.8
2022-12-07T03:23:33.579Z,3.8
2022-12-07T03:25:35.590Z,3.8
2022-12-07T03:27:37.633Z,3.8
2022-12-07T03:31:41.834Z,3.8
2022-12-07T03:33:46.953Z,3.7
2022-12-07T03:35:49.023Z,3.7
2022-12-07T03:37:51.061Z,3.7
2022-12-07T03:38:53.658Z,3.7
2022-12-07T03:40:55.727Z,3.7
2022-12-07T03:42:57.752Z,3.6
2022-12-07T03:44:59.786Z,3.5
2022-12-07T03:47:04.985Z,3.5
2022-12-07T03:49:07.031Z,3.5
2022-12-07T03:51:09.072Z,3.4
2022-12-07T03:53:11.136Z,3.4
2022-12-07T03:55:13.134Z,3.5
2022-12-07T03:57:15.180Z,3.4
2022-12-07T04:05:26.491Z,3.4
2022-12-07T04:07:28.551Z,3.5
2022-12-07T04:09:30.545Z,3.5
2022-12-07T04:11:32.606Z,3.6
2022-12-07T04:13:34.613Z,3.6
2022-12-07T04:15:39.884Z,3.7
2022-12-07T04:17:41.847Z,3.7
2022-12-07T04:19:43.906Z,3.7
2022-12-07T04:21:45.922Z,3.6
2022-12-07T04:23:47.967Z,3.6
2022-12-07T04:25:49.978Z,3.5
2022-12-07T04:27:52.009Z,3.4
2022-12-07T04:34:01.288Z,2.9
2022-12-07T04:36:24.440Z,2.7
2022-12-07T04:38:26.469Z,2.6
2022-12-07T04:40:28.503Z,2.6
2022-12-07T04:42:33.675Z,2.4
2022-12-07T04:46:37.786Z,2.4
2022-12-07T04:50:46.033Z,2.5
2022-12-07T04:52:43.793Z,2.5
2022-12-07T04:54:45.790Z,2.6
2022-12-07T04:56:50.951Z,2.6
2022-12-07T04:58:52.964Z,2.6
2022-12-07T05:00:55.004Z,2.6
2022-12-07T05:02:56.976Z,2.6
2022-12-07T05:04:59.000Z,2.5
2022-12-07T05:07:01.013Z,2.4
2022-12-07T05:09:03.029Z,2.3
2022-12-07T05:11:08.180Z,2.3
2022-12-07T05:13:10.194Z,2.3
2022-12-07T05:15:12.201Z,2.3
2022-12-07T05:17:14.213Z,2.2
2022-12-07T05:19:16.238Z,2.2
2022-12-07T05:21:18.248Z,2.2
2022-12-07T05:23:20.250Z,2.2
2022-12-07T05:25:25.393Z,2.2
2022-12-07T05:27:27.444Z,2.2
2022-12-07T05:29:29.441Z,2.2
2022-12-07T05:30:32.005Z,2.3
2022-12-07T05:32:34.013Z,2.3
2022-12-07T05:38:43.197Z,2.2
2022-12-07T05:40:45.212Z,2.2
2022-12-07T05:42:47.178Z,2.1
2022-12-07T05:46:51.175Z,2.1
2022-12-07T05:53:00.322Z,2.2
2022-12-07T05:55:02.335Z,2.2
2022-12-07T05:57:04.340Z,2.2
2022-12-07T05:59:06.325Z,2.2
2022-12-07T06:01:08.330Z,2.3
2022-12-07T06:03:10.413Z,2.4
2022-12-07T06:05:12.337Z,2.4
2022-12-07T06:07:17.510Z,2.5
2022-12-07T06:09:19.511Z,2.5
2022-12-07T06:11:21.479Z,2.4
2022-12-07T06:13:23.493Z,2.3
2022-12-07T06:15:25.498Z,2.2
2022-12-07T06:17:27.509Z,2.2
2022-12-07T06:19:29.494Z,2.1
2022-12-07T06:21:34.636Z,2.1
2022-12-07T06:23:36.649Z,2.1
2022-12-07T06:25:38.649Z,2
2022-12-07T06:26:41.249Z,2
2022-12-07T06:28:43.248Z,2.1
2022-12-07T06:30:45.225Z,2.1
2022-12-07T06:32:47.234Z,2.1
2022-12-07T06:34:52.370Z,2
2022-12-07T06:36:54.412Z,2
2022-12-07T06:38:56.388Z,2
2022-12-07T06:40:58.383Z,1.9
2022-12-07T06:43:00.353Z,1.9
2022-12-07T06:45:02.389Z,1.9
2022-12-07T06:49:09.521Z,2
2022-12-07T06:51:11.514Z,2
2022-12-07T06:53:13.495Z,1.9
2022-12-07T06:55:15.489Z,1.9
2022-12-07T06:57:17.506Z,1.9
2022-12-07T06:59:19.493Z,1.8
2022-12-07T07:01:21.537Z,1.9
2022-12-07T07:03:26.631Z,1.8
2022-12-07T07:05:28.618Z,1.8
2022-12-07T07:07:30.806Z,1.8
2022-12-07T07:09:34.123Z,1.8
2022-12-07T07:11:36.101Z,1.8
2022-12-07T07:13:38.078Z,1.8
2022-12-07T07:15:40.087Z,1.7
2022-12-07T07:17:45.217Z,1.8
2022-12-07T07:19:47.194Z,1.8
2022-12-07T07:21:49.200Z,1.8
2022-12-07T07:22:51.766Z,1.8
2022-12-07T07:24:53.749Z,1.8
2022-12-07T07:26:55.751Z,1.8
2022-12-07T07:28:57.755Z,1.8
2022-12-07T07:31:02.941Z,1.8
2022-12-07T07:33:04.876Z,1.8
2022-12-07T07:35:06.878Z,1.8
2022-12-07T07:37:08.869Z,1.8
2022-12-07T07:39:10.870Z,1.8
2022-12-07T07:41:12.825Z,1.9
2022-12-07T07:43:14.817Z,1.9
2022-12-07T07:45:19.997Z,2
2022-12-07T07:47:21.968Z,2.1
2022-12-07T07:49:23.967Z,2.2
2022-12-07T07:51:25.940Z,2.3
2022-12-07T07:53:27.947Z,2.3
2022-12-07T07:55:29.951Z,2.3
2022-12-07T07:57:31.942Z,2.4
2022-12-07T07:59:37.072Z,2.5
2022-12-07T08:01:39.118Z,2.5
2022-12-07T08:03:41.049Z,2.6
2022-12-07T08:05:43.078Z,2.7
2022-12-07T08:07:45.203Z,2.7
2022-12-07T08:09:47.033Z,2.7
2022-12-07T08:11:49.036Z,2.7
2022-12-07T08:13:54.217Z,2.8
2022-12-07T08:15:56.728Z,2.8
2022-12-07T08:17:58.218Z,2.8
2022-12-07T08:24:25.262Z,2.8
2022-12-07T08:26:30.421Z,2.8
2022-12-07T08:28:32.423Z,2.9
2022-12-07T08:32:36.415Z,3
2022-12-07T08:34:38.505Z,3.1
2022-12-07T08:36:40.454Z,3.2
2022-12-07T08:42:49.621Z,3.4
2022-12-07T08:44:51.650Z,3.5
2022-12-07T08:46:53.797Z,3.5
2022-12-07T08:48:55.697Z,3.5
2022-12-07T08:50:57.706Z,3.5
2022-12-07T08:52:59.733Z,3.5
2022-12-07T08:55:04.912Z,3.5
2022-12-07T08:57:06.933Z,3.4
2022-12-07T09:01:11.049Z,3.4
2022-12-07T09:03:13.040Z,3.4
2022-12-07T09:05:16.803Z,3.4
2022-12-07T09:07:17.212Z,3.3
2022-12-07T09:09:22.280Z,3.3
2022-12-07T09:11:28.454Z,3.4
2022-12-07T09:13:26.338Z,3.4
2022-12-07T09:16:31.039Z,3.4
2022-12-07T09:22:40.245Z,3.5
2022-12-07T09:24:42.238Z,3.6
2022-12-07T09:26:44.295Z,3.6
2022-12-07T09:28:46.297Z,3.7
2022-12-07T09:31:21.740Z,3.7
2022-12-07T09:36:57.570Z,3.8
2022-12-07T09:38:59.579Z,3.8
2022-12-07T09:41:01.628Z,3.8
2022-12-07T09:43:03.754Z,3.9
2022-12-07T09:45:05.700Z,4
2022-12-07T09:47:07.730Z,4.1
2022-12-07T09:49:09.754Z,4.2
2022-12-07T09:51:20.941Z,4.3
2022-12-07T09:53:16.987Z,4.3
2022-12-07T09:55:18.990Z,4.3
2022-12-07T09:57:21.026Z,4.5
2022-12-07T09:59:23.083Z,4.7
2022-12-07T10:01:25.210Z,4.7
2022-12-07T10:03:27.152Z,4.9
2022-12-07T10:05:32.376Z,5.3
2022-12-07T10:07:34.409Z,5.3
2022-12-07T10:09:36.408Z,5.4
2022-12-07T10:10:39.028Z,5.4
2022-12-07T10:16:45.219Z,5.3
2022-12-07T10:22:54.514Z,5
2022-12-07T10:24:56.577Z,5
2022-12-07T10:33:07.950Z,5.7
2022-12-07T10:35:09.984Z,5.8
2022-12-07T10:37:12.061Z,6.1
2022-12-07T10:39:14.109Z,6.6
2022-12-07T10:41:16.184Z,6.7
2022-12-07T10:43:18.223Z,6.3
2022-12-07T10:51:30.722Z,6
2022-12-07T10:53:31.468Z,6.1
2022-12-07T10:55:33.411Z,5.9
2022-12-07T10:57:35.383Z,6.5
2022-12-07T10:59:37.433Z,8
2022-12-07T11:01:42.502Z,8.9
2022-12-07T11:03:44.465Z,8.8
2022-12-07T11:05:46.432Z,8.7
2022-12-07T11:06:48.908Z,7.9
2022-12-07T11:08:50.878Z,7.3
2022-12-07T11:10:52.854Z,7.6
2022-12-07T11:12:54.783Z,9.1
2022-12-07T11:14:59.804Z,9.9
2022-12-07T11:17:01.754Z,10.1
2022-12-07T11:19:03.777Z,11.2
2022-12-07T11:21:05.740Z,10.9
2022-12-07T11:23:07.723Z,10.9
2022-12-07T11:25:09.689Z,10.5
2022-12-07T11:29:16.671Z,10.2
2022-12-07T11:31:18.701Z,10.8
2022-12-07T11:33:20.637Z,11
2022-12-07T11:37:24.562Z,10.4
2022-12-07T11:39:26.533Z,8.9
2022-12-07T11:41:28.519Z,7.3
2022-12-07T11:43:33.564Z,6.4
2022-12-07T11:45:35.526Z,6.4
2022-12-07T11:47:37.504Z,9
2022-12-07T11:49:39.469Z,9.8
2022-12-07T11:51:41.456Z,10.4
2022-12-07T11:53:43.434Z,9.9
2022-12-07T11:55:45.407Z,10
2022-12-07T11:57:50.420Z,10.7
2022-12-07T11:59:52.416Z,11.1
2022-12-07T12:01:54.462Z,11.8
2022-12-07T12:16:32.440Z,9.6
2022-12-07T12:18:34.260Z,10.6
2022-12-07T12:20:36.173Z,9.1
2022-12-07T12:22:38.161Z,7.8
2022-12-07T12:24:43.182Z,7.2
2022-12-07T12:26:45.207Z,7.2
2022-12-07T12:28:50.391Z,7
2022-12-07T12:30:49.184Z,6.9
2022-12-07T12:32:51.196Z,6.9
2022-12-07T12:34:53.167Z,7.3
2022-12-07T12:36:55.135Z,8.3
2022-12-07T12:39:00.210Z,9.3
2022-12-07T12:41:02.184Z,9.4
2022-12-07T12:43:04.190Z,9.2
2022-12-07T12:45:06.136Z,8.2
2022-12-07T12:47:08.129Z,7.8
2022-12-07T12:49:10.122Z,7.6
2022-12-07T12:51:12.107Z,7.6
2022-12-07T12:53:17.164Z,7.7
2022-12-07T12:55:19.167Z,7.6
2022-12-07T12:57:21.108Z,7.3
2022-12-07T12:58:23.638Z,7.2
2022-12-07T13:00:27.167Z,7.2
2022-12-07T13:02:29.148Z,7.3
2022-12-07T13:06:36.131Z,7.1
2022-12-07T13:08:38.166Z,7.2
2022-12-07T13:10:40.129Z,7.2
2022-12-07T13:12:42.105Z,7.3
2022-12-07T13:14:44.085Z,7.4
2022-12-07T13:16:46.132Z,7.5
2022-12-07T13:20:53.114Z,7.3
2022-12-07T13:22:55.103Z,7.3
2022-12-07T13:24:57.089Z,7.2
2022-12-07T13:31:03.152Z,7.3
2022-12-07T13:33:05.074Z,7.2
2022-12-07T13:35:10.099Z,7.2
2022-12-07T13:39:14.061Z,7.1
2022-12-07T13:41:16.061Z,7.2
2022-12-07T13:43:18.047Z,7.3
2022-12-07T13:45:20.018Z,7.1
2022-12-07T13:47:21.991Z,7
2022-12-07T13:49:27.074Z,6.7
2022-12-07T13:51:29.025Z,6.7
2022-12-07T13:56:35.538Z,6.6
2022-12-07T13:58:37.580Z,7.5
2022-12-07T14:02:46.016Z,7.3
2022-12-07T14:04:46.471Z,7.1
2022-12-07T14:12:54.434Z,6.7
2022-12-07T14:14:56.420Z,6.5
2022-12-07T14:17:01.512Z,6.4
2022-12-07T14:19:03.435Z,6.5
2022-12-07T14:21:05.434Z,6.4
2022-12-07T14:23:07.382Z,6.3
2022-12-07T14:25:09.368Z,6.3
2022-12-07T14:27:11.396Z,6.3
2022-12-07T14:29:13.338Z,6.2
2022-12-07T14:31:24.916Z,6
2022-12-07T14:33:20.353Z,5.9
2022-12-07T14:35:22.335Z,5.8
2022-12-07T14:37:24.310Z,5.6
2022-12-07T14:39:26.292Z,5.4
2022-12-07T14:41:28.270Z,5.3
2022-12-07T14:43:30.234Z,5.2
2022-12-07T14:45:35.464Z,5
2022-12-07T14:49:39.674Z,4.9
2022-12-07T14:54:46.408Z,4.8
2022-12-07T14:56:48.462Z,4.7
2022-12-07T15:00:55.732Z,4.6
2022-12-07T15:11:06.087Z,4.3
2022-12-07T15:13:11.323Z,4.2
2022-12-07T15:17:27.770Z,4.2
2022-12-07T15:19:28.002Z,4.2
2022-12-07T15:21:19.578Z,4.1
2022-12-07T15:23:21.604Z,4.2
2022-12-07T15:25:23.674Z,4.1
2022-12-07T15:27:28.889Z,4.2
2022-12-07T15:29:30.971Z,4.2
2022-12-07T15:31:54.517Z,4.2
2022-12-07T15:33:35.085Z,4.2
2022-12-07T15:35:37.153Z,4.2
2022-12-07T15:37:39.213Z,4.2
2022-12-07T15:41:46.538Z,4.2
2022-12-07T15:43:48.572Z,4.2
2022-12-07T15:45:50.626Z,4.2
2022-12-07T15:48:28.693Z,4.2
2022-12-07T15:50:09.746Z,4.2
2022-12-07T15:52:11.813Z,4.2
2022-12-07T15:54:17.023Z,4.2
2022-12-07T15:56:19.060Z,4.2
2022-12-07T15:58:21.141Z,4.2
2022-12-07T16:00:23.152Z,4.2
2022-12-07T16:02:25.242Z,4.2
2022-12-07T16:04:27.334Z,4.2
2022-12-07T16:06:29.311Z,4.1
2022-12-07T16:08:36.653Z,4.2
2022-12-07T16:10:36.555Z,4.2
2022-12-07T16:12:38.634Z,4.1
2022-12-07T16:20:46.842Z,4
2022-12-07T16:26:56.203Z,4
2022-12-07T16:28:58.248Z,4.1
2022-12-07T16:31:00.385Z,4
2022-12-07T16:33:02.809Z,4
2022-12-07T16:37:09.633Z,4
2022-12-07T16:39:11.756Z,4
2022-12-07T16:41:13.701Z,4
2022-12-07T16:42:16.329Z,3.9
2022-12-07T16:46:20.492Z,3.9
2022-12-07T16:48:22.468Z,3.9
2022-12-07T16:50:27.697Z,3.9
2022-12-07T16:52:29.780Z,3.9
2022-12-07T16:58:35.905Z,3.8
2022-12-07T17:00:38.019Z,3.8
2022-12-07T17:02:40.027Z,3.8
2022-12-07T17:04:45.217Z,3.8
2022-12-07T17:06:47.259Z,3.8
2022-12-07T17:08:49.333Z,3.8
2022-12-07T17:10:51.368Z,3.8
2022-12-07T17:12:53.422Z,3.8
2022-12-07T17:14:55.483Z,3.8
2022-12-07T17:16:57.579Z,3.8
2022-12-07T17:21:05.739Z,3.8
2022-12-07T17:23:06.798Z,3.7
2022-12-07T17:25:08.891Z,3.8
2022-12-07T17:31:15.103Z,3.7
2022-12-07T17:33:20.213Z,3.7
2022-12-07T17:35:22.248Z,3.7
2022-12-07T17:37:24.295Z,3.7
2022-12-07T17:38:26.873Z,3.7
2022-12-07T17:40:28.963Z,3.7
2022-12-07T17:42:31.008Z,3.8
2022-12-07T17:46:38.237Z,3.8
2022-12-07T17:48:40.292Z,3.7
2022-12-07T17:50:42.336Z,3.7
2022-12-07T18:00:55.718Z,3.6
2022-12-07T18:02:57.808Z,3.6
2022-12-07T18:04:59.990Z,3.6
2022-12-07T18:09:03.849Z,3.6
2022-12-07T18:11:05.868Z,3.5
2022-12-07T18:13:07.911Z,3.5
2022-12-07T18:15:13.110Z,3.6
2022-12-07T18:17:15.149Z,3.5
2022-12-07T18:19:17.220Z,3.5
2022-12-07T18:21:19.213Z,3.6
2022-12-07T18:23:21.256Z,3.6
2022-12-07T18:25:23.318Z,3.5
2022-12-07T18:29:30.556Z,3.5
2022-12-07T18:31:32.634Z,3.5
2022-12-07T18:33:34.611Z,3.5
2022-12-07T18:34:37.225Z,3.5
2022-12-07T18:36:39.267Z,3.5
2022-12-07T18:38:41.292Z,3.5
2022-12-07T18:44:50.608Z,3.5
2022-12-07T18:46:52.630Z,3.5
2022-12-07T18:48:54.641Z,3.5
2022-12-07T18:50:56.662Z,3.4
2022-12-07T18:53:00.246Z,3.4
2022-12-07T18:55:02.591Z,3.4
2022-12-07T18:57:07.442Z,3.4
2022-12-07T18:59:09.427Z,3.4
2022-12-07T19:03:13.531Z,3.4
2022-12-07T19:05:15.576Z,3.4
2022-12-07T19:07:17.609Z,3.3
2022-12-07T19:09:19.640Z,3.3
2022-12-07T19:13:26.856Z,3.4
2022-12-07T19:15:28.897Z,3.4
2022-12-07T19:17:30.914Z,3.4
2022-12-07T19:19:32.963Z,3.4
2022-12-07T19:21:34.989Z,3.4
2022-12-07T19:23:37.027Z,3.4
2022-12-07T19:25:42.221Z,3.4
2022-12-07T19:27:44.237Z,3.4
2022-12-07T19:29:46.266Z,3.4
2022-12-07T19:32:03.316Z,3.4
2022-12-07T19:34:05.273Z,3.4
2022-12-07T19:36:07.289Z,3.4
2022-12-07T19:38:12.503Z,3.5
2022-12-07T19:40:14.521Z,3.5
2022-12-07T19:42:16.555Z,3.5
2022-12-07T19:44:18.591Z,3.5
2022-12-07T19:46:20.701Z,3.5
2022-12-07T19:48:22.630Z,3.5
2022-12-07T19:50:24.657Z,3.5
2022-12-07T19:52:33.578Z,3.5
2022-12-07T19:54:32.115Z,3.5
2022-12-07T19:56:33.911Z,3.5
2022-12-07T19:58:35.918Z,3.5
2022-12-07T20:00:37.992Z,3.5
2022-12-07T20:02:40.092Z,3.4
2022-12-07T20:04:42.085Z,3.5
2022-12-07T20:06:47.226Z,3.4
2022-12-07T20:08:49.283Z,3.4
2022-12-07T20:10:51.363Z,3.4
2022-12-07T20:12:53.373Z,3.5
2022-12-07T20:14:55.392Z,3.4
2022-12-07T20:16:57.482Z,3.4
2022-12-07T20:18:59.433Z,3.4
2022-12-07T20:21:04.617Z,3.4
2022-12-07T20:23:06.685Z,3.4
2022-12-07T20:25:08.722Z,3.4
2022-12-07T20:26:11.276Z,3.4
2022-12-07T20:28:13.367Z,3.4
2022-12-07T20:30:15.376Z,3.4
2022-12-07T20:32:17.390Z,3.4
2022-12-07T20:38:26.608Z,3.3
2022-12-07T20:42:30.671Z,3.3
2022-12-07T20:44:32.692Z,3.3
2022-12-07T20:48:39.932Z,3.3
2022-12-07T20:50:42.340Z,3.3
2022-12-07T20:52:43.966Z,3.2
2022-12-07T20:54:45.986Z,3.3
2022-12-07T20:56:48.038Z,3.2
2022-12-07T20:58:50.047Z,3.2
2022-12-07T21:00:52.089Z,3.2
2022-12-07T21:02:57.464Z,3.2
2022-12-07T21:04:59.281Z,3.2
2022-12-07T21:07:01.330Z,3.2
2022-12-07T21:09:03.351Z,3.2
2022-12-07T21:11:05.365Z,3.1
2022-12-07T21:13:07.384Z,3.2
2022-12-07T21:15:09.442Z,3.2
2022-12-07T21:17:14.664Z,3.2
2022-12-07T21:19:16.643Z,3.2
2022-12-07T21:21:18.698Z,3.1
2022-12-07T21:24:23.304Z,3.1
2022-12-07T21:26:25.299Z,3.1
2022-12-07T21:28:27.327Z,3.1
2022-12-07T21:34:36.570Z,3.1
2022-12-07T21:36:38.630Z,3
2022-12-07T21:38:40.640Z,3
2022-12-07T21:40:42.671Z,3
2022-12-07T21:42:44.690Z,3
2022-12-07T21:44:49.869Z,3
2022-12-07T21:46:52.052Z,3
2022-12-07T21:48:53.906Z,3
2022-12-07T21:50:55.936Z,3.1
2022-12-07T21:52:57.960Z,3
2022-12-07T21:54:59.989Z,3
2022-12-07T21:57:01.996Z,2.9
2022-12-07T21:59:07.223Z,2.8
2022-12-07T22:01:09.307Z,2.8
2022-12-07T22:03:11.277Z,2.8
2022-12-07T22:05:13.224Z,2.8
2022-12-07T22:07:15.261Z,2.8
2022-12-07T22:09:17.287Z,2.8
2022-12-07T22:11:19.302Z,2.7
2022-12-07T22:13:24.496Z,2.6
2022-12-07T22:15:26.493Z,2.7
2022-12-07T22:17:28.522Z,2.7
2022-12-07T22:18:31.101Z,2.7
2022-12-07T22:20:33.128Z,2.6
2022-12-07T22:22:35.140Z,2.6
2022-12-07T22:24:37.142Z,2.6
2022-12-07T22:26:42.315Z,2.5
2022-12-07T22:40:59.545Z,2.5
2022-12-07T22:43:01.553Z,2.5
2022-12-07T22:47:05.642Z,2.4
2022-12-07T22:49:07.589Z,2.4
2022-12-07T22:51:09.590Z,2.3
2022-12-07T22:53:11.588Z,2.3
2022-12-07T22:55:16.746Z,2.3
2022-12-07T22:57:18.746Z,2.3
2022-12-07T22:59:20.787Z,2.4
2022-12-07T23:01:22.834Z,2.3
2022-12-07T23:03:24.870Z,2.3
2022-12-07T23:05:26.771Z,2.3
2022-12-07T23:07:28.803Z,2.2
2022-12-07T23:09:33.956Z,2.2
2022-12-07T23:11:38.297Z,2.2
2022-12-07T23:13:37.966Z,2.2
2022-12-07T23:16:00.830Z,2.2
2022-12-07T23:18:02.753Z,2.2
2022-12-07T23:20:04.761Z,2.1
2022-12-07T23:22:09.964Z,2.1
2022-12-07T23:24:11.913Z,2.1
2022-12-07T23:26:13.919Z,2.1
2022-12-07T23:28:15.921Z,2.1
2022-12-07T23:30:17.899Z,2
2022-12-07T23:32:19.898Z,2
2022-12-07T23:34:21.908Z,2.1
2022-12-07T23:36:27.057Z,2
2022-12-07T23:38:29.030Z,1.9
2022-12-07T23:40:31.032Z,1.9
2022-12-07T23:46:37.096Z,2
2022-12-07T23:52:46.191Z,2.1
2022-12-07T23:54:48.208Z,2
2022-12-07T23:56:50.219Z,2.1
2022-12-07T23:58:52.243Z,2.1
